Time;durP1;ratioP1;P1;durP2;ratioP2;P2;SDS_P1;SDS_P2;PMS_P1;PMS_P2;Temp;Humidity;BMP_temperature;BMP_pressure;BME280_temperature;BME280_humidity;BME280_pressure;Samples;Min_cycle;Max_cycle;Signal;HPM_P1;HPM_P2
2022/11/16 00:02:46;;;;;;;47.38;17.63;;;;;;;;;;10288519;23;20021;-93
2022/11/16 00:06:49;;;;;;;38.33;16.90;;;;;;;;;;10287841;23;20028;-94
2022/11/16 00:10:53;;;;;;;35.20;14.70;;;;;;;;;;10288747;23;20017;-94
2022/11/16 00:14:56;;;;;;;31.17;13.40;;;;;;;;;;10288671;23;20017;-95
2022/11/16 00:19:00;;;;;;;43.85;17.38;;;;;;;;;;10288364;23;20024;-91
2022/11/16 00:23:05;;;;;;;54.63;19.38;;;;;;;;;;10287289;23;20464;-92
2022/11/16 00:27:09;;;;;;;39.03;15.52;;;;;;;;;;10304176;23;20508;-91
2022/11/16 00:31:12;;;;;;;40.60;16.13;;;;;;;;;;10287848;23;20016;-93
2022/11/16 00:35:15;;;;;;;38.20;17.25;;;;;;;;;;10288002;23;20031;-94
2022/11/16 00:39:18;;;;;;;38.63;15.60;;;;;;;;;;10288138;23;20016;-94
2022/11/16 00:43:23;;;;;;;46.28;16.70;;;;;;;;;;10287461;23;20075;-92
2022/11/16 00:47:26;;;;;;;42.08;16.83;;;;;;;;;;10304716;23;20353;-95
2022/11/16 00:51:28;;;;;;;37.58;15.77;;;;;;;;;;10288119;23;20012;-93
2022/11/16 00:55:32;;;;;;;39.15;16.15;;;;;;;;;;10287581;23;20160;-91
2022/11/16 00:59:36;;;;;;;41.13;15.15;;;;;;;;;;10288006;23;20021;-93
2022/11/16 01:03:39;;;;;;;43.55;16.80;;;;;;;;;;10286109;23;20024;-94
2022/11/16 01:07:41;;;;;;;33.22;12.82;;;;;;;;;;10286279;23;20016;-92
2022/11/16 01:16:05;;;;;;;40.67;15.38;;;;;;;;;;10303530;23;20067;-91
2022/11/16 01:20:13;;;;;;;42.58;16.05;;;;;;;;;;10304107;23;20349;-91
2022/11/16 01:24:16;;;;;;;38.45;14.38;;;;;;;;;;10303812;23;20025;-93
2022/11/16 01:28:18;;;;;;;41.40;14.35;;;;;;;;;;10287835;23;20433;-94
2022/11/16 01:32:22;;;;;;;38.42;14.60;;;;;;;;;;10287887;23;20028;-93
2022/11/16 01:36:25;;;;;;;45.75;15.57;;;;;;;;;;10287816;23;20199;-94
2022/11/16 01:40:28;;;;;;;41.10;14.27;;;;;;;;;;10290538;23;20024;-94
2022/11/16 01:44:57;;;;;;;40.03;15.48;;;;;;;;;;10290103;23;20024;-94
2022/11/16 01:49:05;;;;;;;38.15;13.75;;;;;;;;;;10288946;23;20027;-93
2022/11/16 01:53:10;;;;;;;47.83;17.42;;;;;;;;;;10304851;23;20417;-94
2022/11/16 01:57:17;;;;;;;43.15;13.60;;;;;;;;;;10289597;23;20449;-92
2022/11/16 02:01:20;;;;;;;24.38;10.25;;;;;;;;;;10289532;23;20044;-92
2022/11/16 02:05:31;;;;;;;34.05;11.90;;;;;;;;;;10291334;23;20017;-94
2022/11/16 02:09:57;;;;;;;26.55;11.65;;;;;;;;;;10292828;23;20349;-94
2022/11/16 02:14:10;;;;;;;15.60;6.70;;;;;;;;;;10350840;23;20007;-94
2022/11/16 02:18:24;;;;;;;21.45;8.68;;;;;;;;;;10336634;23;20036;-94
2022/11/16 02:22:42;;;;;;;25.17;10.45;;;;;;;;;;10335712;23;20019;-93
2022/11/16 02:27:29;;;;;;;19.80;8.23;;;;;;;;;;10323452;23;20116;-96
2022/11/16 02:31:36;;;;;;;23.08;9.13;;;;;;;;;;10293353;23;20016;-93
2022/11/16 02:35:44;;;;;;;19.50;8.85;;;;;;;;;;10293213;23;20066;-95
2022/11/16 02:39:50;;;;;;;18.80;7.80;;;;;;;;;;10310267;23;20341;-94
2022/11/16 02:43:59;;;;;;;21.58;9.27;;;;;;;;;;10294369;23;20103;-95
2022/11/16 02:48:09;;;;;;;24.05;8.93;;;;;;;;;;10295947;23;20388;-95
2022/11/16 02:52:14;;;;;;;25.30;9.18;;;;;;;;;;10293152;23;20119;-95
2022/11/16 02:56:16;;;;;;;17.83;7.00;;;;;;;;;;10320260;22;20027;-87
2022/11/16 03:00:22;;;;;;;25.27;9.57;;;;;;;;;;10336350;23;20374;-86
2022/11/16 03:04:32;;;;;;;26.67;10.82;;;;;;;;;;10353196;23;20024;-86
2022/11/16 03:08:39;;;;;;;19.58;8.27;;;;;;;;;;10354530;23;20027;-86
2022/11/16 03:12:42;;;;;;;21.73;8.52;;;;;;;;;;10354258;23;20329;-85
2022/11/16 03:16:48;;;;;;;26.23;10.40;;;;;;;;;;10337146;23;20016;-87
2022/11/16 03:20:56;;;;;;;29.88;9.80;;;;;;;;;;10354455;23;20027;-87
2022/11/16 03:24:59;;;;;;;24.48;9.13;;;;;;;;;;10354677;23;20399;-87
2022/11/16 03:29:07;;;;;;;29.98;10.10;;;;;;;;;;10338040;23;20020;-86
2022/11/16 03:33:17;;;;;;;27.05;10.00;;;;;;;;;;10337876;23;20591;-87
2022/11/16 03:37:23;;;;;;;18.88;6.97;;;;;;;;;;10354627;23;20470;-89
2022/11/16 03:41:28;;;;;;;26.83;9.60;;;;;;;;;;10354781;23;20020;-87
2022/11/16 03:45:32;;;;;;;31.70;10.88;;;;;;;;;;10354442;23;20027;-87
2022/11/16 03:49:34;;;;;;;27.98;10.38;;;;;;;;;;10337575;23;20016;-87
2022/11/16 03:53:38;;;;;;;26.30;9.05;;;;;;;;;;10337517;23;20452;-87
2022/11/16 03:57:41;;;;;;;27.23;8.15;;;;;;;;;;10337359;23;20028;-86
2022/11/16 04:01:43;;;;;;;23.83;8.30;;;;;;;;;;10337283;23;20016;-84
2022/11/16 04:40:33;;;;;;;22.38;8.70;;;;;;;;;;10354164;23;20015;-88
2022/11/16 04:48:57;;;;;;;25.25;8.07;;;;;;;;;;10354159;23;20057;-87
2022/11/16 04:52:59;;;;;;;24.45;8.55;;;;;;;;;;10337478;23;20012;-86
2022/11/16 04:57:03;;;;;;;18.95;8.65;;;;;;;;;;10336483;23;20398;-86
2022/11/16 05:01:06;;;;;;;26.40;9.32;;;;;;;;;;10337039;23;20017;-87
2022/11/16 05:05:10;;;;;;;27.42;9.18;;;;;;;;;;10336948;23;20046;-86
2022/11/16 05:09:12;;;;;;;21.42;7.88;;;;;;;;;;10337408;23;20020;-86
2022/11/16 05:13:14;;;;;;;18.52;8.02;;;;;;;;;;10339124;23;20020;-88
2022/11/16 05:17:19;;;;;;;25.23;9.05;;;;;;;;;;10340377;23;20531;-88
2022/11/16 05:21:22;;;;;;;25.90;9.18;;;;;;;;;;10341474;23;20519;-85
2022/11/16 05:25:25;;;;;;;27.25;10.02;;;;;;;;;;10340568;23;20024;-87
2022/11/16 05:29:27;;;;;;;31.80;10.25;;;;;;;;;;10339628;23;20021;-84
2022/11/16 05:33:31;;;;;;;34.75;17.48;;;;;;;;;;10340419;23;20058;-85
2022/11/16 05:37:34;;;;;;;25.23;9.40;;;;;;;;;;10339549;23;20046;-87
2022/11/16 05:41:36;;;;;;;28.55;9.05;;;;;;;;;;10339665;23;20019;-86
2022/11/16 05:45:39;;;;;;;27.63;9.90;;;;;;;;;;10339719;23;20452;-88
2022/11/16 05:49:43;;;;;;;27.52;9.15;;;;;;;;;;10339551;23;20016;-85
2022/11/16 05:53:45;;;;;;;33.63;10.18;;;;;;;;;;10338894;23;20020;-87
2022/11/16 05:57:47;;;;;;;36.22;11.43;;;;;;;;;;10338918;23;20024;-87
2022/11/16 06:01:51;;;;;;;73.47;20.88;;;;;;;;;;10335817;23;20078;-88
2022/11/16 06:05:57;;;;;;;40.15;13.05;;;;;;;;;;10335402;23;20044;-88
2022/11/16 06:10:00;;;;;;;24.15;9.00;;;;;;;;;;10352453;23;20463;-89
2022/11/16 06:14:02;;;;;;;25.67;10.00;;;;;;;;;;10338898;23;20031;-86
2022/11/16 06:18:05;;;;;;;28.30;9.60;;;;;;;;;;10339048;23;20024;-87
2022/11/16 06:22:09;;;;;;;27.08;9.05;;;;;;;;;;10339485;23;20016;-86
2022/11/16 06:26:12;;;;;;;46.95;18.73;;;;;;;;;;10339129;23;20521;-86
2022/11/16 06:30:15;;;;;;;44.90;18.27;;;;;;;;;;10339038;23;20016;-86
2022/11/16 06:34:18;;;;;;;40.22;15.07;;;;;;;;;;10338786;23;20039;-88
2022/11/16 06:38:22;;;;;;;41.90;15.35;;;;;;;;;;10339119;23;20019;-87
2022/11/16 06:42:25;;;;;;;43.58;17.77;;;;;;;;;;10338569;23;20026;-88
2022/11/16 06:46:27;;;;;;;26.13;10.63;;;;;;;;;;10338254;23;20024;-88
2022/11/16 06:50:30;;;;;;;44.58;18.77;;;;;;;;;;10336165;23;20020;-88
2022/11/16 06:54:34;;;;;;;34.30;14.63;;;;;;;;;;10336698;23;20028;-90
2022/11/16 06:58:36;;;;;;;45.42;15.23;;;;;;;;;;10337743;23;20021;-88
2022/11/16 07:02:39;;;;;;;19.95;9.07;;;;;;;;;;10334139;23;20506;-87
2022/11/16 07:06:42;;;;;;;13.55;5.95;;;;;;;;;;10334478;23;20028;-86
2022/11/16 07:10:45;;;;;;;22.42;9.10;;;;;;;;;;10332755;23;20095;-85
2022/11/16 07:14:48;;;;;;;20.77;8.75;;;;;;;;;;10335583;23;20022;-86
2022/11/16 07:18:52;;;;;;;29.73;11.82;;;;;;;;;;10336846;23;20024;-88
2022/11/16 07:22:55;;;;;;;25.80;12.15;;;;;;;;;;10336586;23;20039;-87
2022/11/16 07:26:59;;;;;;;47.13;12.48;;;;;;;;;;10336271;23;20467;-86
2022/11/16 07:31:02;;;;;;;32.33;11.45;;;;;;;;;;10310352;23;20348;-85
2022/11/16 07:35:05;;;;;;;36.28;12.57;;;;;;;;;;10336927;23;20360;-85
2022/11/16 07:39:09;;;;;;;36.80;12.85;;;;;;;;;;10284572;23;20024;-86
2022/11/16 07:43:13;;;;;;;14.15;6.00;;;;;;;;;;10336956;23;20054;-86
2022/11/16 07:47:16;;;;;;;55.67;26.02;;;;;;;;;;10336706;23;20019;-85
2022/11/16 07:51:19;;;;;;;23.30;9.32;;;;;;;;;;10337007;23;20031;-88
2022/11/16 07:55:24;;;;;;;13.75;6.57;;;;;;;;;;10335913;23;20086;-86
2022/11/16 07:59:28;;;;;;;25.58;10.90;;;;;;;;;;10335985;23;20444;-89
2022/11/16 08:03:31;;;;;;;22.13;9.57;;;;;;;;;;10336449;23;20502;-89
2022/11/16 08:07:34;;;;;;;26.20;13.20;;;;;;;;;;10336109;23;20031;-87
2022/11/16 08:11:37;;;;;;;19.17;7.82;;;;;;;;;;10337093;23;20024;-87
2022/11/16 08:15:40;;;;;;;13.43;6.28;;;;;;;;;;10336546;23;20027;-87
2022/11/16 08:19:43;;;;;;;22.35;9.52;;;;;;;;;;10336247;23;20020;-88
2022/11/16 08:23:46;;;;;;;22.83;9.35;;;;;;;;;;10334633;23;20051;-88
2022/11/16 08:27:48;;;;;;;17.40;9.13;;;;;;;;;;10334758;23;20016;-88
2022/11/16 08:31:56;;;;;;;16.63;7.63;;;;;;;;;;10330004;23;20470;-88
2022/11/16 08:36:04;;;;;;;46.38;24.52;;;;;;;;;;10329641;23;20065;-88
2022/11/16 08:40:18;;;;;;;29.08;17.05;;;;;;;;;;10331021;23;20459;-87
2022/11/16 08:44:32;;;;;;;29.80;15.90;;;;;;;;;;10346166;23;20098;-88
2022/11/16 08:48:39;;;;;;;23.25;10.52;;;;;;;;;;10335133;22;20031;-87
2022/11/16 08:52:46;;;;;;;20.52;8.65;;;;;;;;;;10348951;23;20102;-88
2022/11/16 08:56:49;;;;;;;23.75;11.57;;;;;;;;;;10330235;23;20148;-88
2022/11/16 09:00:51;;;;;;;25.33;12.15;;;;;;;;;;10332786;23;20514;-87
2022/11/16 09:04:56;;;;;;;12.27;5.85;;;;;;;;;;10334149;23;20103;-88
2022/11/16 09:08:59;;;;;;;61.03;24.52;;;;;;;;;;10334721;23;20044;-88
2022/11/16 09:13:02;;;;;;;21.88;8.70;;;;;;;;;;10337066;23;20040;-88
2022/11/16 09:17:05;;;;;;;32.30;13.73;;;;;;;;;;10335996;23;20067;-89
2022/11/16 09:21:09;;;;;;;29.60;13.95;;;;;;;;;;10337622;23;20115;-88
2022/11/16 09:25:12;;;;;;;22.02;10.98;;;;;;;;;;10339206;23;20024;-87
2022/11/16 09:29:15;;;;;;;20.60;8.50;;;;;;;;;;10327744;23;20020;-88
2022/11/16 09:33:19;;;;;;;13.30;7.80;;;;;;;;;;10338842;23;20022;-87
2022/11/16 09:37:23;;;;;;;11.80;5.82;;;;;;;;;;10339086;23;20023;-88
2022/11/16 09:42:05;;;;;;;14.05;6.38;;;;;;;;;;10339096;23;20429;-88
2022/11/16 09:46:20;;;;;;;26.00;13.70;;;;;;;;;;10268314;23;20028;-89
2022/11/16 09:50:33;;;;;;;13.63;5.55;;;;;;;;;;10339135;23;20031;-89
2022/11/16 09:54:42;;;;;;;23.58;10.20;;;;;;;;;;10339285;23;20020;-87
2022/11/16 09:58:52;;;;;;;34.10;15.98;;;;;;;;;;10355533;23;20582;-88
2022/11/16 10:03:04;;;;;;;14.57;7.78;;;;;;;;;;10355809;23;20119;-87
2022/11/16 10:07:13;;;;;;;30.47;13.93;;;;;;;;;;10354422;23;20064;-89
2022/11/16 10:32:50;;;;;;;32.97;15.55;;;;;;;;;;8446089;27;1790165;-88
2022/11/16 10:36:56;;;;;;;19.67;9.05;;;;;;;;;;8483638;28;20048;-89
2022/11/16 10:41:05;;;;;;;12.30;6.30;;;;;;;;;;8491031;28;20051;-88
2022/11/16 10:45:19;;;;;;;15.50;6.88;;;;;;;;;;8476137;28;20039;-87
2022/11/16 10:49:28;;;;;;;17.00;7.07;;;;;;;;;;8471889;28;20467;-88
2022/11/16 10:53:34;;;;;;;14.85;7.13;;;;;;;;;;8477662;28;20546;-88
2022/11/16 10:57:55;;;;;;;12.10;6.20;;;;;;;;;;8489809;27;20067;-87
2022/11/16 11:01:58;;;;;;;14.48;6.00;;;;;;;;;;8473107;28;20402;-88
2022/11/16 11:06:02;;;;;;;15.95;7.97;;;;;;;;;;8460780;28;20077;-88
2022/11/16 11:10:06;;;;;;;13.82;6.00;;;;;;;;;;8469128;28;20325;-88
2022/11/16 11:14:11;;;;;;;16.73;7.40;;;;;;;;;;8477069;28;20043;-88
2022/11/16 11:44:42;;;;;;;14.93;8.97;;;;;;;;;;10382013;22;1935075;-91
2022/11/16 11:48:52;;;;;;;;;;;;;;;;;;10251120;23;20315;-91
2022/11/16 11:53:02;;;;;;;10.50;5.25;;;;;;;;;;10252363;23;19916;-92
2022/11/16 12:15:18;;;;;;;130.13;42.83;;;;;;;;;;10258093;23;20017;-93
2022/11/16 12:19:43;;;;;;;77.97;28.45;;;;;;;;;;10253804;23;20400;-91
2022/11/16 12:39:56;;;;;;;56.25;27.17;;;;;;;;;;10247677;23;20076;-94
2022/11/16 12:44:57;;;;;;;18.17;9.32;;;;;;;;;;10242054;23;20025;-95
2022/11/16 12:54:39;;;;;;;10.27;4.30;;;;;;;;;;10236778;23;20150;-93
2022/11/16 12:59:15;;;;;;;20.77;11.20;;;;;;;;;;10237892;23;20017;-92
2022/11/16 13:03:28;;;;;;;13.32;7.13;;;;;;;;;;10257188;23;20613;-93
2022/11/16 13:07:37;;;;;;;8.25;5.05;;;;;;;;;;10235839;23;20334;-92
2022/11/16 13:11:48;;;;;;;10.85;5.90;;;;;;;;;;10234269;23;20151;-92
2022/11/16 13:15:53;;;;;;;8.73;4.05;;;;;;;;;;10243620;23;20104;-88
2022/11/16 13:20:28;;;;;;;17.50;7.82;;;;;;;;;;10256362;23;20099;-89
2022/11/16 13:29:48;;;;;;;9.23;5.32;;;;;;;;;;10186535;23;20393;-92
2022/11/16 13:38:52;;;;;;;8.95;5.28;;;;;;;;;;10181734;23;20079;-94
2022/11/16 13:43:05;;;;;;;46.20;19.27;;;;;;;;;;10186118;23;20017;-92
2022/11/16 13:47:20;;;;;;;49.80;22.45;;;;;;;;;;10204124;23;20026;-87
2022/11/16 13:51:37;;;;;;;23.98;11.18;;;;;;;;;;10201224;23;20029;-94
2022/11/16 14:00:11;;;;;;;29.50;14.70;;;;;;;;;;10184650;23;20052;-91
2022/11/16 14:04:39;;;;;;;22.25;10.07;;;;;;;;;;10181529;23;20062;-92
2022/11/16 14:09:25;;;;;;;13.63;7.30;;;;;;;;;;10185669;23;20089;-93
2022/11/16 14:13:48;;;;;;;18.35;9.82;;;;;;;;;;10176358;23;20100;-93
2022/11/16 14:29:15;;;;;;;22.98;11.27;;;;;;;;;;10188328;23;20024;-92
2022/11/16 14:33:30;;;;;;;31.30;15.38;;;;;;;;;;10186851;23;20437;-92
2022/11/16 15:27:51;;;;;;;12.00;6.70;;;;;;;;;;8485636;28;20050;-90
2022/11/16 15:32:00;;;;;;;42.30;21.08;;;;;;;;;;8510226;28;20580;-90
2022/11/16 15:36:36;;;;;;;34.08;15.70;;;;;;;;;;8473782;28;20517;-90
2022/11/16 15:41:08;;;;;;;76.15;31.48;;;;;;;;;;8486763;27;20050;-90
2022/11/16 15:45:24;;;;;;;42.03;19.05;;;;;;;;;;8488729;27;20073;-91
2022/11/16 15:49:29;;;;;;;28.95;16.13;;;;;;;;;;8514437;27;20024;-88
2022/11/16 15:53:38;;;;;;;24.08;11.63;;;;;;;;;;8505431;28;20459;-86
2022/11/16 15:57:42;;;;;;;14.90;7.95;;;;;;;;;;8495060;27;20066;-86
2022/11/16 16:01:51;;;;;;;34.63;17.50;;;;;;;;;;8485315;27;20427;-86
2022/11/16 16:05:59;;;;;;;35.90;15.75;;;;;;;;;;8503246;27;20047;-86
2022/11/16 16:15:00;;;;;;;12.57;7.60;;;;;;;;;;8327128;28;20092;-86
2022/11/16 16:19:32;;;;;;;18.67;10.95;;;;;;;;;;8220869;28;21095;-86
2022/11/16 16:23:50;;;;;;;29.75;14.82;;;;;;;;;;8208002;28;20055;-85
2022/11/16 16:27:54;;;;;;;15.55;8.52;;;;;;;;;;8166162;29;20043;-86
2022/11/16 16:32:01;;;;;;;26.42;12.88;;;;;;;;;;8199073;29;20122;-86
2022/11/16 16:36:12;;;;;;;7.78;5.00;;;;;;;;;;8209204;29;20051;-87
2022/11/16 16:40:33;;;;;;;9.77;4.35;;;;;;;;;;8268835;28;20058;-87
2022/11/16 16:45:12;;;;;;;;;;;;;;;;;;8280825;28;20552;-85
2022/11/16 16:49:16;;;;;;;20.98;10.50;;;;;;;;;;8360371;28;19964;-86
2022/11/16 16:53:21;;;;;;;23.05;10.15;;;;;;;;;;8349080;28;20054;-87
2022/11/16 16:57:23;;;;;;;38.72;21.83;;;;;;;;;;8389222;28;20052;-87
2022/11/16 17:01:27;;;;;;;19.20;9.15;;;;;;;;;;8386420;28;20067;-90
2022/11/16 17:05:31;;;;;;;63.33;25.65;;;;;;;;;;8384872;28;20044;-90
2022/11/16 17:09:40;;;;;;;31.00;16.83;;;;;;;;;;8400211;28;20123;-92
2022/11/16 17:13:46;;;;;;;35.38;12.52;;;;;;;;;;8425969;28;20028;-92
2022/11/16 17:17:52;;;;;;;94.72;27.15;;;;;;;;;;8403762;28;20048;-91
2022/11/16 17:21:58;;;;;;;95.45;30.88;;;;;;;;;;8469099;27;20142;-93
2022/11/16 17:26:12;;;;;;;13.00;5.63;;;;;;;;;;8447414;28;20052;-92
2022/11/16 17:34:40;;;;;;;20.73;9.52;;;;;;;;;;8450885;28;20043;-92
2022/11/16 17:43:55;;;;;;;23.83;11.55;;;;;;;;;;8486212;27;20074;-93
2022/11/16 17:48:23;;;;;;;16.77;9.05;;;;;;;;;;8453723;27;20084;-92
2022/11/16 17:52:27;;;;;;;22.73;9.98;;;;;;;;;;8470483;28;20695;-92
2022/11/16 17:56:30;;;;;;;60.65;19.30;;;;;;;;;;8455619;28;20047;-92
2022/11/16 18:01:13;;;;;;;116.45;35.65;;;;;;;;;;8445660;28;20051;-92
2022/11/16 18:05:17;;;;;;;49.55;18.90;;;;;;;;;;8451101;27;20103;-90
2022/11/16 18:13:46;;;;;;;38.42;15.85;;;;;;;;;;8444414;27;20079;-90
2022/11/16 18:18:06;;;;;;;31.77;10.73;;;;;;;;;;8474310;27;20047;-93
2022/11/16 18:22:11;;;;;;;50.75;19.00;;;;;;;;;;8445100;27;20051;-92
2022/11/16 18:26:17;;;;;;;36.92;14.88;;;;;;;;;;8449729;27;20070;-94
2022/11/16 18:30:22;;;;;;;45.10;16.30;;;;;;;;;;8467489;27;20067;-90
2022/11/16 18:34:27;;;;;;;111.18;44.88;;;;;;;;;;8466771;27;20044;-88
2022/11/16 18:38:38;;;;;;;54.10;19.88;;;;;;;;;;8463957;27;20036;-87
2022/11/16 18:42:41;;;;;;;21.88;9.82;;;;;;;;;;8454861;28;20088;-87
2022/11/16 18:46:44;;;;;;;33.55;13.90;;;;;;;;;;8436757;28;20066;-87
2022/11/16 18:50:49;;;;;;;16.92;8.85;;;;;;;;;;8445432;28;20043;-87
2022/11/16 18:54:53;;;;;;;45.90;19.60;;;;;;;;;;8449341;28;20036;-87
2022/11/16 18:58:58;;;;;;;36.70;13.65;;;;;;;;;;8454413;28;20079;-88
2022/11/16 19:03:15;;;;;;;25.75;11.40;;;;;;;;;;8426859;28;20067;-87
2022/11/16 19:07:20;;;;;;;33.28;11.80;;;;;;;;;;8441915;28;20047;-86
2022/11/16 19:11:24;;;;;;;80.65;31.60;;;;;;;;;;8462970;28;20048;-87
2022/11/16 19:15:27;;;;;;;46.75;21.48;;;;;;;;;;8463799;28;20039;-87
2022/11/16 19:19:35;;;;;;;40.75;14.23;;;;;;;;;;8463940;28;20051;-88
2022/11/16 19:23:47;;;;;;;33.75;13.88;;;;;;;;;;8421327;28;20056;-87
2022/11/16 19:27:57;;;;;;;39.45;15.82;;;;;;;;;;8445690;28;20047;-87
2022/11/16 19:32:01;;;;;;;39.17;17.15;;;;;;;;;;8449872;28;20079;-87
2022/11/16 19:36:11;;;;;;;95.57;44.33;;;;;;;;;;8466661;28;20093;-87
2022/11/16 19:40:18;;;;;;;8.20;4.07;;;;;;;;;;8472599;28;20039;-87
2022/11/16 19:44:25;;;;;;;20.02;8.85;;;;;;;;;;8482654;28;20448;-87
2022/11/16 19:48:32;;;;;;;20.40;7.55;;;;;;;;;;8474245;28;20044;-87
2022/11/16 19:52:37;;;;;;;34.95;14.68;;;;;;;;;;8471880;28;20379;-87
2022/11/16 19:56:50;;;;;;;35.33;16.70;;;;;;;;;;8481518;27;20050;-87
2022/11/16 20:01:00;;;;;;;52.95;18.77;;;;;;;;;;8467296;27;20048;-88
2022/11/16 20:05:03;;;;;;;31.55;14.48;;;;;;;;;;8465342;27;20372;-87
2022/11/16 20:09:10;;;;;;;14.50;8.30;;;;;;;;;;8459336;28;20115;-87
2022/11/16 20:13:15;;;;;;;7.55;3.97;;;;;;;;;;8449076;28;20043;-87
2022/11/16 20:17:19;;;;;;;42.33;14.98;;;;;;;;;;8453838;27;20044;-87
2022/11/16 20:21:25;;;;;;;11.05;6.82;;;;;;;;;;8460999;28;20381;-87
2022/11/16 20:25:28;;;;;;;20.33;8.07;;;;;;;;;;8458774;28;20039;-86
2022/11/16 20:29:34;;;;;;;34.25;13.93;;;;;;;;;;8453010;28;20059;-86
2022/11/16 20:33:40;;;;;;;58.00;38.75;;;;;;;;;;8422779;28;20044;-85
2022/11/16 20:37:45;;;;;;;17.60;8.23;;;;;;;;;;8435565;28;20044;-86
2022/11/16 20:41:49;;;;;;;19.60;9.20;;;;;;;;;;8449007;28;20067;-86
2022/11/16 20:45:54;;;;;;;24.00;10.55;;;;;;;;;;8471417;28;20062;-86
2022/11/16 20:49:58;;;;;;;22.45;9.45;;;;;;;;;;8456754;28;20044;-86
2022/11/16 20:54:02;;;;;;;26.52;10.57;;;;;;;;;;8450944;28;20040;-86
2022/11/16 20:58:05;;;;;;;11.32;5.35;;;;;;;;;;8446024;28;20044;-86
2022/11/16 21:02:11;;;;;;;20.88;8.63;;;;;;;;;;8447699;28;20044;-86
2022/11/16 21:06:16;;;;;;;15.20;6.93;;;;;;;;;;8441587;28;20036;-86
2022/11/16 21:10:18;;;;;;;20.10;7.07;;;;;;;;;;8450944;28;20039;-89
2022/11/16 21:14:24;;;;;;;17.50;5.88;;;;;;;;;;8463931;28;20050;-89
2022/11/16 21:18:31;;;;;;;16.25;6.22;;;;;;;;;;8462677;28;20482;-88
2022/11/16 21:22:36;;;;;;;15.10;5.10;;;;;;;;;;8456179;28;20491;-86
2022/11/16 21:26:39;;;;;;;17.40;6.95;;;;;;;;;;8443243;28;20036;-88
2022/11/16 21:30:43;;;;;;;25.20;9.43;;;;;;;;;;8443547;28;20037;-89
2022/11/16 21:34:47;;;;;;;4.47;2.63;;;;;;;;;;8446853;28;20441;-89
2022/11/16 21:38:50;;;;;;;3.90;2.28;;;;;;;;;;8464593;28;20112;-91
2022/11/16 21:42:52;;;;;;;27.55;9.63;;;;;;;;;;8443623;28;20040;-90
2022/11/16 21:46:55;;;;;;;29.65;7.55;;;;;;;;;;8461269;28;20118;-91
2022/11/16 21:51:03;;;;;;;18.50;6.68;;;;;;;;;;8459524;28;20552;-90
2022/11/16 21:55:09;;;;;;;17.52;6.00;;;;;;;;;;8447414;28;20483;-89
2022/11/16 21:59:11;;;;;;;13.80;5.28;;;;;;;;;;8447033;28;20457;-90
2022/11/16 22:03:14;;;;;;;27.38;7.95;;;;;;;;;;8460958;28;20043;-89
2022/11/16 22:07:32;;;;;;;20.13;6.35;;;;;;;;;;8473643;28;20108;-89
2022/11/16 22:11:35;;;;;;;13.15;4.93;;;;;;;;;;8471028;28;20160;-88
2022/11/16 22:15:38;;;;;;;22.73;7.78;;;;;;;;;;8450076;28;20051;-89
2022/11/16 22:19:43;;;;;;;12.02;4.60;;;;;;;;;;8471934;28;20052;-91
2022/11/16 22:23:57;;;;;;;8.75;4.10;;;;;;;;;;8453253;28;20113;-90
2022/11/16 22:27:59;;;;;;;8.63;4.40;;;;;;;;;;8464308;28;20047;-91
2022/11/16 22:32:02;;;;;;;19.30;6.97;;;;;;;;;;8478267;28;20068;-89
2022/11/16 22:36:17;;;;;;;8.88;4.18;;;;;;;;;;8481541;28;20039;-88
2022/11/16 22:40:23;;;;;;;4.97;2.70;;;;;;;;;;8470869;28;20044;-88
2022/11/16 22:44:26;;;;;;;8.75;4.18;;;;;;;;;;8482038;28;20040;-89
2022/11/16 22:48:32;;;;;;;8.15;3.85;;;;;;;;;;8478748;28;20542;-89
2022/11/16 22:52:43;;;;;;;4.82;2.78;;;;;;;;;;8467604;28;20044;-90
2022/11/16 22:56:47;;;;;;;6.68;3.53;;;;;;;;;;8481333;28;20047;-89
2022/11/16 23:00:53;;;;;;;6.28;3.45;;;;;;;;;;8465434;28;20050;-90
2022/11/16 23:05:01;;;;;;;8.65;4.28;;;;;;;;;;8446271;28;20062;-89
2022/11/16 23:09:05;;;;;;;7.25;3.97;;;;;;;;;;8474151;28;20066;-88
2022/11/16 23:27:40;;;;;;;7.57;4.50;;;;;;;;;;8353102;28;20053;-89
2022/11/16 23:31:44;;;;;;;5.10;3.03;;;;;;;;;;8404819;28;20048;-89
2022/11/16 23:35:47;;;;;;;4.90;2.70;;;;;;;;;;8407283;28;20074;-89
2022/11/16 23:39:50;;;;;;;11.15;5.80;;;;;;;;;;8396286;28;20066;-88
2022/11/16 23:43:57;;;;;;;11.02;5.13;;;;;;;;;;8399182;28;20627;-88
2022/11/16 23:48:01;;;;;;;9.02;4.10;;;;;;;;;;8386930;28;20093;-89
2022/11/16 23:52:11;;;;;;;11.18;5.72;;;;;;;;;;8376807;28;20044;-88
2022/11/16 23:56:14;;;;;;;10.63;5.32;;;;;;;;;;8390563;28;20131;-89
